Aeroporto :
LOGIN :

Iscrizione | Disclaimer

   EN    FR    IT 

 










Sommario :    VFR   VFR Marginale   IFR   IFR Intensivo   IFR Molto Intensivo
Visibilità : 
Base nubi : 
>= 8 km
>= 3000ft
5 / 8 km
1000 / 3000 ft
1500m / 5 km
500 / 1000 ft
800 / 1500m
200 / 500 ft
< 800m
< 200 ft
Simboli :   Temporali  Nebbia  Neve Forte  Precipitazioni Forti  Vento > 20 kt
SIGMETs :   Varie  Temporali  Ghiacco  Turbolenza  Onda orograficha  Ceneri Vulcaniche






- Altitudine del aeroporto : 512 ft
- Codice IATA : URO


LFOP - Rouen Vallée de Seine

ULTIMO METAR :
  • 191730Z AUTO 28010KT 9999 FEW014 BKN021 BKN027 19/16 Q1018 NOSIG

METARs OBSOLETI :
  • 191700Z AUTO 28010KT 9999 FEW011 SCT017 OVC023 19/16 Q1017 TEMPO 3000 SHRA BKN008 BKN020CB
  • 191630Z AUTO 27007KT 9999 BKN010 BKN016 BKN170 19/18 Q1017 TEMPO 3000 SHRA BKN008 BKN020CB
  • 191600Z AUTO 26009KT 9999 SCT008/// BKN025/// BKN032/// //////TCU 19/18 Q1017 TEMPO 3000 SHRA BKN008 BKN020CB
  • 191530Z AUTO 27009KT 240V300 7000 3100 -RADZ BKN014/// BKN021/// OVC033/// ///TCU 20/17 Q1017 TEMPO 3000 SHRA BKN008 BKN020CB
  • 191500Z AUTO 25008KT 9999 BKN021/// OVC028/// ///CB 21/17 Q1017 TEMPO 3000 SHRA BKN008 BKN020CB

TAF TAF LFOP
Valido dal 19 a 18 ore il 20 a 18 ore UTC


191700Z 1918/2018 26006KT 9999 SCT030
TEMPO 1918/1919 BKN010
BECMG 2002/2004 2000 BR
TEMPO 2004/2006 0800 FG
BECMG 2007/2009 9999 NSW
ATIS : +33 2 35 80 80 34
Met : +33 2 32 86 52 80



MetMap, La meteo Aeronautica in un colpo d'occhio ! - Copyright ORBIFLY Dicembre 2007 - Disclaimer

ORBIFLY MET'MAP TEAM :

Programmazione e sviluppo : Alexandra Zaïnal
Concezione : Baudouin d'Aumeries
Supporto tecnico e logistico : Manuel Goepfert
Aiuto : Marc-Olivier Méhu
Aiuto per la traduzione : Arnaldo La Scala




FONTI E CREDITI :

   NOAA